Time;durP1;ratioP1;P1;durP2;ratioP2;P2;SDS_P1;SDS_P2;PMS_P1;PMS_P2;Temp;Humidity;BMP_temperature;BMP_pressure;BME280_temperature;BME280_humidity;BME280_pressure;Samples;Min_cycle;Max_cycle;Signal;HPM_P1;HPM_P2
2022/05/15 00:02:17;;;;;;;2.28;1.30;;;24.40;99.90;;;;;;4990717;28;20441;-73
2022/05/15 00:04:44;;;;;;;1.73;1.00;;;24.20;99.90;;;;;;4986185;28;20401;-74
2022/05/15 00:07:11;;;;;;;2.03;1.40;;;24.10;99.90;;;;;;4984425;28;20033;-74
2022/05/15 00:09:39;;;;;;;1.42;0.98;;;24.10;99.90;;;;;;4992227;28;20034;-74
2022/05/15 00:12:07;;;;;;;3.08;0.80;;;24.30;99.90;;;;;;4992332;28;20041;-73
2022/05/15 00:14:35;;;;;;;6.93;1.20;;;24.50;99.90;;;;;;4992707;28;20065;-74
2022/05/15 00:17:03;;;;;;;1.50;1.02;;;24.60;99.90;;;;;;4990267;28;20019;-74
2022/05/15 00:19:30;;;;;;;1.85;1.65;;;24.70;99.90;;;;;;4992039;28;20096;-72
2022/05/15 00:21:57;;;;;;;2.92;1.80;;;24.70;99.90;;;;;;4990707;28;20027;-73
2022/05/15 00:24:28;;;;;;;3.45;2.13;;;24.50;99.90;;;;;;4992813;28;20034;-73
2022/05/15 00:26:56;;;;;;;2.63;1.63;;;24.40;99.90;;;;;;4990459;28;20023;-73
2022/05/15 00:29:24;;;;;;;2.45;2.10;;;24.40;99.90;;;;;;4992152;28;20132;-73
2022/05/15 00:31:51;;;;;;;2.88;1.90;;;24.30;99.90;;;;;;4991378;28;20154;-73
2022/05/15 00:34:18;;;;;;;2.65;1.95;;;24.40;99.90;;;;;;4992747;28;20038;-71
2022/05/15 00:36:46;;;;;;;2.58;2.28;;;24.60;99.90;;;;;;4990534;28;20022;-72
2022/05/15 00:39:13;;;;;;;2.55;2.35;;;24.60;99.90;;;;;;4991635;28;20048;-72
2022/05/15 00:41:41;;;;;;;4.43;1.90;;;24.60;99.90;;;;;;4990158;28;20393;-72
2022/05/15 00:44:10;;;;;;;3.70;1.95;;;24.50;99.90;;;;;;4991736;28;20076;-72
2022/05/15 00:46:40;;;;;;;3.90;2.33;;;24.40;99.90;;;;;;4990036;28;20035;-72
2022/05/15 00:49:13;;;;;;;3.78;2.85;;;24.50;99.90;;;;;;4992751;28;20033;-72
2022/05/15 00:51:58;;;;;;;2.63;2.22;;;24.40;99.90;;;;;;4992032;28;20366;-72
2022/05/15 00:54:42;;;;;;;3.13;2.72;;;24.30;99.90;;;;;;4994100;28;20097;-72
2022/05/15 00:57:20;;;;;;;4.00;2.70;;;24.30;99.90;;;;;;4985503;28;20031;-72
2022/05/15 01:00:09;;;;;;;3.28;2.55;;;24.40;99.90;;;;;;4994924;28;20029;-72
2022/05/15 01:02:43;;;;;;;3.13;2.30;;;24.40;99.90;;;;;;4990896;28;20054;-72
2022/05/15 01:05:14;;;;;;;2.20;2.00;;;24.30;99.90;;;;;;4988336;28;20026;-71
2022/05/15 01:07:42;;;;;;;4.25;2.42;;;24.30;99.90;;;;;;4992911;28;20524;-73
2022/05/15 01:10:10;;;;;;;2.65;2.22;;;24.30;99.90;;;;;;4993947;28;20034;-73
2022/05/15 01:12:40;;;;;;;5.57;2.20;;;24.20;99.90;;;;;;4990875;28;20481;-73
2022/05/15 01:15:11;;;;;;;2.47;2.00;;;24.10;99.90;;;;;;4974509;28;20429;-73
2022/05/15 01:17:38;;;;;;;2.35;1.80;;;23.90;99.90;;;;;;4989967;28;20030;-74
2022/05/15 01:20:13;;;;;;;2.20;1.83;;;23.90;99.90;;;;;;4991959;28;20038;-75
2022/05/15 01:22:40;;;;;;;3.97;2.42;;;24.10;99.90;;;;;;4989765;28;20101;-74
2022/05/15 01:25:15;;;;;;;2.80;2.03;;;24.60;99.90;;;;;;4990975;28;20421;-74
2022/05/15 01:28:05;;;;;;;5.05;2.72;;;26.50;99.90;;;;;;4986759;28;20041;-75
2022/05/15 01:30:35;;;;;;;2.55;2.15;;;27.90;99.90;;;;;;4985505;28;20481;-73
2022/05/15 01:33:03;;;;;;;2.55;1.58;;;27.70;99.90;;;;;;4986840;28;20034;-74
2022/05/15 01:35:31;;;;;;;3.42;2.42;;;27.20;99.90;;;;;;4989307;28;20197;-73
2022/05/15 01:37:58;;;;;;;1.95;1.70;;;26.70;99.90;;;;;;4986435;28;20339;-73
2022/05/15 01:40:26;;;;;;;2.58;1.88;;;26.30;99.90;;;;;;4992141;28;20027;-74
2022/05/15 01:42:53;;;;;;;4.22;2.15;;;26.00;99.90;;;;;;4989444;28;20077;-73
2022/05/15 01:45:21;;;;;;;3.60;2.25;;;25.60;99.90;;;;;;4991753;28;20186;-73
2022/05/15 01:47:49;;;;;;;2.47;1.60;;;25.40;99.90;;;;;;4973249;28;20184;-73
2022/05/15 01:50:17;;;;;;;4.57;2.20;;;25.20;99.90;;;;;;4991121;28;20034;-73
2022/05/15 01:52:45;;;;;;;2.35;1.88;;;25.10;99.90;;;;;;4989546;28;20030;-73
2022/05/15 01:55:13;;;;;;;2.42;1.70;;;25.00;99.90;;;;;;4973983;28;20413;-74
2022/05/15 01:57:41;;;;;;;3.08;1.75;;;25.00;99.90;;;;;;4988436;28;20030;-74
2022/05/15 02:00:13;;;;;;;2.60;1.90;;;25.00;99.90;;;;;;4991590;28;20445;-73
2022/05/15 02:02:40;;;;;;;2.30;1.40;;;25.00;99.90;;;;;;4970488;28;20122;-72
2022/05/15 02:05:09;;;;;;;2.25;1.77;;;24.90;99.90;;;;;;4962221;28;20062;-74
2022/05/15 02:07:37;;;;;;;2.47;1.55;;;24.80;99.90;;;;;;4966939;28;20114;-73
2022/05/15 02:10:06;;;;;;;3.10;1.48;;;24.70;99.90;;;;;;4972146;28;20035;-73
2022/05/15 02:12:33;;;;;;;2.75;1.80;;;24.70;99.90;;;;;;4969821;28;20047;-73
2022/05/15 02:15:01;;;;;;;3.88;2.38;;;24.70;99.90;;;;;;4970947;28;20358;-72
2022/05/15 02:17:30;;;;;;;3.13;1.88;;;24.70;99.90;;;;;;4970332;28;20041;-73
2022/05/15 02:19:57;;;;;;;2.75;2.00;;;24.70;99.90;;;;;;4972067;28;20102;-72
2022/05/15 02:22:25;;;;;;;3.50;2.17;;;24.70;99.90;;;;;;4968335;28;20043;-72
2022/05/15 02:24:52;;;;;;;3.08;2.65;;;24.70;99.90;;;;;;4971819;28;20027;-75
2022/05/15 02:27:20;;;;;;;3.53;2.08;;;24.60;99.90;;;;;;4970174;28;20110;-72
2022/05/15 02:29:47;;;;;;;3.53;2.42;;;24.50;99.90;;;;;;4972220;28;20023;-73
2022/05/15 02:32:15;;;;;;;2.53;1.75;;;24.40;99.90;;;;;;4969485;28;20038;-72
2022/05/15 02:34:42;;;;;;;1.17;0.85;;;24.30;99.90;;;;;;4971600;28;20398;-72
2022/05/15 02:37:09;;;;;;;3.85;1.35;;;24.30;99.90;;;;;;4969491;28;20042;-72
2022/05/15 02:39:37;;;;;;;3.03;1.52;;;24.20;99.90;;;;;;4974013;28;20085;-72
2022/05/15 02:42:05;;;;;;;2.83;1.52;;;24.20;99.90;;;;;;4973459;28;20031;-73
2022/05/15 02:44:32;;;;;;;2.75;1.88;;;24.30;99.90;;;;;;4971212;28;20031;-72
2022/05/15 02:46:59;;;;;;;3.38;2.08;;;24.30;99.90;;;;;;4973463;28;20031;-75
2022/05/15 02:52:12;;;;;;;2.70;1.83;;;24.30;99.90;;;;;;4973078;28;20081;-73
2022/05/15 02:54:40;;;;;;;1.63;1.33;;;24.20;99.90;;;;;;4973970;28;20616;-75
2022/05/15 02:57:08;;;;;;;3.08;1.67;;;24.30;99.90;;;;;;4973389;28;20027;-73
2022/05/15 02:59:37;;;;;;;2.78;1.70;;;24.40;99.90;;;;;;4974717;28;20429;-72
2022/05/15 03:02:05;;;;;;;1.55;1.30;;;24.40;99.90;;;;;;4984313;28;20046;-73
2022/05/15 03:04:36;;;;;;;2.42;1.35;;;24.50;99.90;;;;;;4988775;28;20390;-73
2022/05/15 03:07:05;;;;;;;1.80;1.23;;;24.50;99.90;;;;;;4988366;28;20428;-73
2022/05/15 03:09:34;;;;;;;2.33;1.40;;;24.50;99.90;;;;;;4987395;28;20100;-74
2022/05/15 03:12:01;;;;;;;1.58;1.05;;;24.50;99.90;;;;;;4990697;28;20034;-73
2022/05/15 03:14:28;;;;;;;3.13;1.55;;;24.50;99.90;;;;;;4989981;28;20042;-72
2022/05/15 03:16:56;;;;;;;1.67;1.25;;;24.60;99.90;;;;;;4991178;28;22261;-74
2022/05/15 03:19:23;;;;;;;1.48;1.02;;;24.70;99.90;;;;;;4994012;28;20469;-73
2022/05/15 03:21:52;;;;;;;1.42;1.00;;;24.70;99.90;;;;;;4987358;28;20045;-73
2022/05/15 03:24:20;;;;;;;2.80;1.40;;;24.80;99.90;;;;;;4991601;28;20026;-74
2022/05/15 03:26:48;;;;;;;2.38;1.58;;;24.90;99.90;;;;;;4992112;28;20038;-73
2022/05/15 03:29:19;;;;;;;2.28;1.42;;;25.00;99.90;;;;;;4994208;28;20101;-74
2022/05/15 03:31:47;;;;;;;1.23;0.98;;;25.00;99.90;;;;;;4991050;28;20030;-75
2022/05/15 03:34:17;;;;;;;2.10;1.15;;;24.90;99.90;;;;;;4975917;28;20049;-75
2022/05/15 03:36:47;;;;;;;1.48;1.00;;;24.80;99.90;;;;;;4993518;28;20023;-73
2022/05/15 03:39:16;;;;;;;3.60;0.90;;;24.70;99.90;;;;;;4993675;28;20022;-72
2022/05/15 03:41:43;;;;;;;2.33;0.80;;;24.70;99.90;;;;;;4991586;28;20362;-74
2022/05/15 03:44:11;;;;;;;1.67;1.08;;;24.60;99.90;;;;;;4993728;28;20022;-73
2022/05/15 03:46:40;;;;;;;1.30;1.00;;;24.60;99.90;;;;;;4990900;28;20113;-73
2022/05/15 03:49:08;;;;;;;2.22;1.13;;;24.50;99.90;;;;;;4993521;28;20430;-73
2022/05/15 03:51:36;;;;;;;1.98;0.80;;;24.50;99.90;;;;;;4990627;28;20069;-74
2022/05/15 03:54:04;;;;;;;1.55;0.77;;;24.50;99.90;;;;;;4993081;28;20378;-76
2022/05/15 03:56:49;;;;;;;2.30;1.67;;;24.50;99.90;;;;;;4992349;28;20029;-74
2022/05/15 03:59:28;;;;;;;2.55;1.38;;;24.40;99.90;;;;;;4989368;28;20038;-74
2022/05/15 04:01:55;;;;;;;1.25;0.90;;;24.40;99.90;;;;;;4972692;28;20042;-74
2022/05/15 04:04:22;;;;;;;3.55;1.35;;;24.40;99.90;;;;;;4987963;28;20070;-71
2022/05/15 04:06:50;;;;;;;4.10;2.60;;;24.40;99.90;;;;;;4980931;28;20473;-76
2022/05/15 04:09:17;;;;;;;2.33;1.38;;;24.40;99.90;;;;;;4992329;28;20080;-72
2022/05/15 04:11:44;;;;;;;3.53;1.52;;;24.40;99.90;;;;;;4990915;28;20030;-74
2022/05/15 04:14:12;;;;;;;3.15;1.40;;;24.40;99.90;;;;;;4993143;28;20388;-73
2022/05/15 04:16:39;;;;;;;1.88;1.15;;;24.40;99.90;;;;;;4990479;28;20022;-74
2022/05/15 04:19:08;;;;;;;2.95;1.20;;;24.40;99.90;;;;;;4993220;28;20509;-74
2022/05/15 04:21:40;;;;;;;3.25;1.67;;;24.40;99.90;;;;;;4989805;28;20091;-74
2022/05/15 04:24:13;;;;;;;3.67;1.70;;;24.30;99.90;;;;;;4992239;28;20022;-72
2022/05/15 04:26:42;;;;;;;3.75;1.88;;;24.30;99.90;;;;;;4987498;28;20468;-72
2022/05/15 04:29:09;;;;;;;2.72;1.67;;;24.20;99.90;;;;;;4993229;28;20037;-72
2022/05/15 04:31:37;;;;;;;2.85;1.70;;;24.10;99.90;;;;;;4989074;28;20389;-74
2022/05/15 04:34:05;;;;;;;3.05;2.00;;;24.00;99.90;;;;;;4992858;28;20038;-74
2022/05/15 04:36:34;;;;;;;3.33;2.30;;;23.90;99.90;;;;;;4988410;28;20029;-73
2022/05/15 04:39:02;;;;;;;7.43;2.28;;;23.90;99.90;;;;;;4992522;28;20436;-73
2022/05/15 04:41:30;;;;;;;2.35;1.52;;;23.80;99.90;;;;;;4989234;28;20033;-73
2022/05/15 04:43:58;;;;;;;1.98;1.50;;;23.70;99.90;;;;;;4992428;28;20062;-72
2022/05/15 04:46:27;;;;;;;1.67;1.55;;;23.70;99.90;;;;;;4989632;28;20030;-73
2022/05/15 04:48:55;;;;;;;2.45;1.50;;;23.60;99.90;;;;;;4990625;28;20049;-74
2022/05/15 04:51:22;;;;;;;2.20;1.20;;;23.50;99.90;;;;;;4986804;28;20397;-73
2022/05/15 04:53:49;;;;;;;1.70;1.20;;;23.40;99.90;;;;;;4988061;28;20412;-73
2022/05/15 04:56:17;;;;;;;2.40;1.30;;;23.40;99.90;;;;;;4990565;28;20132;-74
2022/05/15 04:58:44;;;;;;;3.97;2.10;;;23.30;99.90;;;;;;4992056;28;20381;-73
2022/05/15 05:01:11;;;;;;;3.85;1.70;;;23.20;99.90;;;;;;4979428;28;20035;-72
2022/05/15 05:03:39;;;;;;;4.78;2.03;;;23.20;99.90;;;;;;4972722;28;20425;-72
2022/05/15 05:06:06;;;;;;;4.00;1.98;;;23.10;99.90;;;;;;4964228;28;20038;-74
2022/05/15 05:08:34;;;;;;;3.78;2.80;;;23.10;99.90;;;;;;4973062;28;20031;-75
2022/05/15 05:11:02;;;;;;;3.20;1.80;;;23.10;99.90;;;;;;4967989;28;20466;-72
2022/05/15 05:13:29;;;;;;;3.53;2.53;;;23.00;99.90;;;;;;4968844;28;20042;-74
2022/05/15 05:15:57;;;;;;;3.95;2.42;;;23.00;99.90;;;;;;4968840;28;20109;-72
2022/05/15 05:18:24;;;;;;;4.82;2.53;;;23.00;99.90;;;;;;4972152;28;20030;-75
2022/05/15 05:20:51;;;;;;;3.65;2.80;;;22.90;99.90;;;;;;4970335;28;20031;-75
2022/05/15 05:23:18;;;;;;;2.58;2.15;;;22.90;99.90;;;;;;4972374;28;20480;-76
2022/05/15 05:25:46;;;;;;;3.33;2.95;;;22.90;99.90;;;;;;4970599;28;20089;-73
2022/05/15 05:28:15;;;;;;;3.67;2.35;;;22.90;99.90;;;;;;4970537;28;20026;-73
2022/05/15 05:30:43;;;;;;;2.70;2.00;;;22.80;99.90;;;;;;4970696;28;20027;-72
2022/05/15 05:33:10;;;;;;;4.38;2.72;;;22.80;99.90;;;;;;4970856;28;20050;-76
2022/05/15 05:35:39;;;;;;;2.67;2.30;;;22.70;99.90;;;;;;4971929;28;20042;-73
2022/05/15 05:38:07;;;;;;;3.13;1.92;;;22.70;99.90;;;;;;4964558;28;20734;-75
2022/05/15 05:40:34;;;;;;;3.10;2.03;;;22.60;99.90;;;;;;4970446;28;20051;-75
2022/05/15 05:43:02;;;;;;;4.32;1.95;;;22.60;99.90;;;;;;4970177;28;20034;-75
2022/05/15 05:45:30;;;;;;;5.68;1.95;;;22.50;99.90;;;;;;4971157;28;20122;-73
2022/05/15 05:47:57;;;;;;;3.25;2.33;;;22.50;99.90;;;;;;4971021;28;20042;-73
2022/05/15 05:50:27;;;;;;;6.05;2.45;;;22.40;99.90;;;;;;4971883;28;20030;-72
2022/05/15 05:52:55;;;;;;;3.03;2.13;;;22.40;99.90;;;;;;4970527;28;20035;-73
2022/05/15 05:55:23;;;;;;;2.75;2.33;;;22.30;99.90;;;;;;4970623;28;20026;-73
2022/05/15 05:57:51;;;;;;;3.05;2.13;;;22.30;99.90;;;;;;4969108;28;20058;-72
2022/05/15 06:00:23;;;;;;;3.90;2.03;;;22.20;99.90;;;;;;4972306;28;20351;-74
2022/05/15 06:02:51;;;;;;;3.03;1.42;;;22.20;99.90;;;;;;4970501;28;20669;-75
2022/05/15 06:05:19;;;;;;;2.58;1.75;;;22.20;99.90;;;;;;4970599;28;20027;-75
2022/05/15 06:07:46;;;;;;;3.85;2.30;;;22.10;99.90;;;;;;4969533;28;20104;-73
2022/05/15 06:10:14;;;;;;;2.17;1.73;;;22.10;99.90;;;;;;4971662;28;20035;-75
2022/05/15 06:12:42;;;;;;;3.22;1.60;;;22.10;99.90;;;;;;4968189;28;20043;-74
2022/05/15 06:15:11;;;;;;;3.53;1.40;;;22.10;99.90;;;;;;4976624;28;20059;-75
2022/05/15 06:17:39;;;;;;;2.13;1.10;;;22.10;99.90;;;;;;4976642;28;20034;-75
2022/05/15 06:20:09;;;;;;;1.63;0.98;;;22.00;99.90;;;;;;4974642;28;20109;-75
2022/05/15 06:22:37;;;;;;;2.83;1.98;;;21.90;99.90;;;;;;4973987;28;20042;-75
2022/05/15 06:25:05;;;;;;;1.40;1.30;;;21.90;99.90;;;;;;4974868;28;20023;-75
2022/05/15 06:27:32;;;;;;;1.80;1.60;;;21.90;99.90;;;;;;4978324;28;20034;-75
2022/05/15 06:30:00;;;;;;;3.10;2.35;;;21.90;99.90;;;;;;4978050;28;20026;-74
2022/05/15 06:32:27;;;;;;;2.78;1.80;;;21.90;99.90;;;;;;4985985;28;20081;-74
2022/05/15 06:34:54;;;;;;;3.63;2.55;;;21.80;99.90;;;;;;4978821;28;20027;-73
2022/05/15 06:37:22;;;;;;;3.47;1.90;;;21.70;99.90;;;;;;4979156;28;20109;-75
2022/05/15 06:39:49;;;;;;;2.97;1.33;;;21.70;99.90;;;;;;4971380;28;20035;-74
2022/05/15 06:42:17;;;;;;;1.98;1.60;;;21.70;99.90;;;;;;4973218;28;20033;-75
2022/05/15 06:44:44;;;;;;;2.55;1.65;;;21.60;99.90;;;;;;4972104;28;20031;-74
2022/05/15 06:47:12;;;;;;;3.40;2.28;;;21.60;99.90;;;;;;4970309;28;20034;-73
2022/05/15 06:49:39;;;;;;;1.83;1.55;;;21.60;99.90;;;;;;4973455;28;20027;-75
2022/05/15 06:52:07;;;;;;;3.17;1.60;;;21.50;99.90;;;;;;4972893;28;20494;-72
2022/05/15 06:54:34;;;;;;;1.90;1.80;;;21.50;99.90;;;;;;4971797;28;20047;-74
2022/05/15 06:59:47;;;;;;;3.38;1.98;;;21.40;99.90;;;;;;4972580;28;20098;-76
2022/05/15 07:02:15;;;;;;;4.20;1.70;;;21.40;99.90;;;;;;4981432;28;20296;-73
2022/05/15 07:04:43;;;;;;;3.55;1.88;;;21.40;99.90;;;;;;4990367;28;20037;-72
2022/05/15 07:07:10;;;;;;;1.65;1.50;;;21.40;99.90;;;;;;4989556;28;20378;-71
2022/05/15 07:09:37;;;;;;;1.52;1.13;;;21.40;99.90;;;;;;4982615;28;20050;-74
2022/05/15 07:12:06;;;;;;;2.15;1.73;;;21.40;99.90;;;;;;4983111;28;20092;-72
2022/05/15 07:14:35;;;;;;;21.88;11.70;;;21.30;99.90;;;;;;4987644;28;20389;-74
2022/05/15 07:17:02;;;;;;;9.32;5.75;;;21.40;99.90;;;;;;4984050;28;20019;-75
2022/05/15 07:19:29;;;;;;;6.90;4.88;;;21.30;99.90;;;;;;4991839;28;20026;-74
2022/05/15 07:21:57;;;;;;;6.20;4.03;;;21.30;99.90;;;;;;4987693;28;20026;-75
2022/05/15 07:24:25;;;;;;;7.15;5.07;;;21.30;99.90;;;;;;4991200;28;20034;-74
2022/05/15 07:26:53;;;;;;;5.00;3.47;;;21.30;99.90;;;;;;4988741;28;20030;-74
2022/05/15 07:29:24;;;;;;;6.80;4.07;;;21.20;99.90;;;;;;4987882;28;20504;-74
2022/05/15 07:31:53;;;;;;;4.78;2.85;;;21.20;99.90;;;;;;4986865;28;20078;-75
2022/05/15 07:34:21;;;;;;;6.57;4.95;;;21.10;99.90;;;;;;4992261;28;20081;-76
2022/05/15 07:36:50;;;;;;;5.20;4.10;;;21.10;99.90;;;;;;4990014;28;20034;-75
2022/05/15 07:39:22;;;;;;;7.97;5.25;;;21.10;99.90;;;;;;4989244;28;20485;-75
2022/05/15 07:41:51;;;;;;;8.65;5.38;;;21.00;99.90;;;;;;4986766;28;20109;-73
2022/05/15 07:44:19;;;;;;;6.63;4.35;;;21.00;99.90;;;;;;4989977;28;20066;-73
2022/05/15 07:46:46;;;;;;;5.40;4.55;;;21.00;99.90;;;;;;4980003;28;20064;-73
2022/05/15 07:49:14;;;;;;;7.15;4.22;;;20.90;99.90;;;;;;4992713;28;20122;-73
2022/05/15 07:51:44;;;;;;;6.20;4.47;;;20.90;99.90;;;;;;4989654;28;20038;-75
2022/05/15 07:54:17;;;;;;;4.72;4.13;;;20.90;99.90;;;;;;4987704;28;20042;-74
2022/05/15 07:56:44;;;;;;;6.70;4.32;;;20.90;99.90;;;;;;4987481;28;20026;-77
2022/05/15 07:59:13;;;;;;;7.28;4.20;;;20.80;99.90;;;;;;4990660;28;20026;-76
2022/05/15 08:01:41;;;;;;;5.57;3.08;;;20.80;99.90;;;;;;4989742;28;20489;-75
2022/05/15 08:04:09;;;;;;;3.92;2.70;;;20.80;99.90;;;;;;4987811;28;20484;-74
2022/05/15 08:09:21;;;;;;;4.70;3.27;;;20.80;99.90;;;;;;4991825;28;20138;-74
2022/05/15 08:11:49;;;;;;;6.32;3.60;;;20.70;99.90;;;;;;4989083;28;20026;-76
2022/05/15 08:14:17;;;;;;;5.50;3.28;;;20.70;99.90;;;;;;4990680;28;20050;-75
2022/05/15 08:16:44;;;;;;;3.35;3.05;;;20.70;99.90;;;;;;4990256;28;20030;-76
2022/05/15 08:24:42;;;;;;;5.80;5.13;;;20.60;99.90;;;;;;4990502;28;20453;-74
2022/05/15 08:27:10;;;;;;;4.43;4.00;;;20.50;99.90;;;;;;4991174;28;20034;-75
2022/05/15 08:29:39;;;;;;;3.90;3.47;;;20.50;99.90;;;;;;4992607;28;20031;-73
2022/05/15 08:32:08;;;;;;;5.50;3.70;;;20.50;99.90;;;;;;4991167;28;20038;-74
2022/05/15 08:34:36;;;;;;;5.65;3.50;;;20.40;99.90;;;;;;4991425;28;20046;-75
2022/05/15 08:37:04;;;;;;;5.70;3.80;;;20.40;99.90;;;;;;4989945;28;20026;-76
2022/05/15 08:39:32;;;;;;;4.70;3.88;;;20.30;99.90;;;;;;4992694;28;20094;-74
2022/05/15 08:42:28;;;;;;;5.80;3.83;;;20.30;99.90;;;;;;4989689;28;20033;-73
2022/05/15 08:45:00;;;;;;;6.35;3.95;;;20.20;99.90;;;;;;4983980;28;20039;-75
2022/05/15 08:47:42;;;;;;;4.22;3.47;;;20.30;99.90;;;;;;4990901;28;20049;-76
2022/05/15 08:50:24;;;;;;;4.30;3.22;;;20.20;99.90;;;;;;4991885;28;20820;-75
2022/05/15 08:52:59;;;;;;;3.35;2.88;;;20.20;99.90;;;;;;4985703;28;20435;-75
2022/05/15 08:56:06;;;;;;;4.30;2.78;;;20.10;99.90;;;;;;4988125;28;20038;-76
2022/05/15 08:58:48;;;;;;;5.38;3.30;;;20.10;99.90;;;;;;4975051;28;20440;-75
2022/05/15 09:01:22;;;;;;;5.63;3.45;;;20.10;99.90;;;;;;4983163;28;20505;-76
2022/05/15 09:03:49;;;;;;;6.43;3.65;;;20.00;99.90;;;;;;4969064;28;20078;-73
2022/05/15 09:06:25;;;;;;;7.05;5.43;;;20.00;99.90;;;;;;4966560;28;20030;-76
2022/05/15 09:09:09;;;;;;;7.95;4.43;;;20.00;99.90;;;;;;4966080;28;20081;-74
2022/05/15 09:11:50;;;;;;;5.22;3.58;;;20.00;99.90;;;;;;4964914;28;20117;-75
2022/05/15 09:14:40;;;;;;;7.45;4.35;;;20.00;99.90;;;;;;4970373;28;20035;-76
2022/05/15 09:17:27;;;;;;;7.28;4.75;;;19.90;99.90;;;;;;4964610;28;20054;-74
2022/05/15 09:20:08;;;;;;;5.97;4.38;;;19.90;99.90;;;;;;4953074;29;20485;-74
2022/05/15 09:22:46;;;;;;;5.45;4.13;;;19.90;99.90;;;;;;4965598;28;20031;-74
2022/05/15 09:25:21;;;;;;;7.22;4.57;;;19.80;99.90;;;;;;4952391;29;20027;-75
2022/05/15 09:28:14;;;;;;;4.72;3.65;;;19.90;99.90;;;;;;4963915;28;20031;-76
2022/05/15 09:30:45;;;;;;;4.38;3.58;;;19.80;99.90;;;;;;4969319;28;20031;-75
2022/05/15 09:33:51;;;;;;;5.70;4.45;;;19.70;99.90;;;;;;4970756;28;20409;-72
2022/05/15 09:36:35;;;;;;;7.38;4.95;;;19.60;99.90;;;;;;4967454;28;20042;-74
2022/05/15 09:39:11;;;;;;;5.68;4.43;;;19.60;99.90;;;;;;4969812;28;20537;-75
2022/05/15 09:44:29;;;;;;;7.85;4.53;;;19.50;99.90;;;;;;4971332;28;20069;-75
2022/05/15 09:47:11;;;;;;;6.43;4.78;;;19.40;99.90;;;;;;4968522;28;20038;-75
2022/05/15 09:49:39;;;;;;;7.82;4.97;;;19.40;99.90;;;;;;4970814;28;20035;-74
2022/05/15 09:52:42;;;;;;;5.30;3.97;;;19.30;99.90;;;;;;4974264;28;20042;-75
2022/05/15 09:55:24;;;;;;;6.70;5.45;;;19.30;99.90;;;;;;4973898;28;20049;-77
2022/05/15 09:58:19;;;;;;;5.15;4.25;;;19.30;99.90;;;;;;4972933;28;20030;-75
2022/05/15 10:00:48;;;;;;;6.60;5.90;;;19.30;99.90;;;;;;4971538;28;20176;-76
2022/05/15 10:03:23;;;;;;;8.25;6.18;;;19.40;99.90;;;;;;4995127;28;20040;-77
2022/05/15 10:06:21;;;;;;;6.47;4.95;;;19.40;99.90;;;;;;4984800;28;20057;-77
2022/05/15 10:09:05;;;;;;;6.18;5.55;;;19.30;99.90;;;;;;4979266;28;20148;-75
2022/05/15 10:11:35;;;;;;;5.72;4.78;;;19.20;99.90;;;;;;4989946;28;20030;-76
2022/05/15 10:14:04;;;;;;;6.32;4.85;;;19.20;99.90;;;;;;4993781;28;20160;-75
2022/05/15 10:16:54;;;;;;;8.52;5.30;;;19.10;99.90;;;;;;4990810;28;20019;-75
2022/05/15 10:19:29;;;;;;;6.57;4.75;;;19.00;99.90;;;;;;4992187;28;20027;-73
2022/05/15 10:22:29;;;;;;;7.40;4.27;;;19.00;99.90;;;;;;4991510;28;20023;-75
2022/05/15 10:25:05;;;;;;;7.90;5.80;;;18.90;99.90;;;;;;4991298;28;20280;-75
2022/05/15 10:27:36;;;;;;;10.50;5.93;;;18.80;99.90;;;;;;4988377;28;20045;-76
2022/05/15 10:30:11;;;;;;;9.88;5.05;;;18.80;99.90;;;;;;4993553;28;20058;-76
2022/05/15 10:32:58;;;;;;;7.50;4.03;;;18.70;99.90;;;;;;4991008;28;20039;-77
2022/05/15 10:35:34;;;;;;;6.75;4.63;;;18.60;99.90;;;;;;4987987;28;20113;-75
2022/05/15 10:38:30;;;;;;;6.78;5.10;;;18.50;99.90;;;;;;4988485;28;20389;-76
2022/05/15 10:41:19;;;;;;;7.55;4.45;;;18.50;99.90;;;;;;4971804;28;20061;-76
2022/05/15 10:44:02;;;;;;;5.57;4.25;;;18.40;99.90;;;;;;4989678;28;20030;-76
2022/05/15 10:46:59;;;;;;;7.10;4.38;;;18.40;99.90;;;;;;4990100;28;20208;-76
2022/05/15 10:50:18;;;;;;;7.93;5.47;;;18.30;99.90;;;;;;4990803;28;20096;-76
2022/05/15 10:59:35;;;;;;;6.88;6.07;;;18.40;99.90;;;;;;4988368;28;20068;-76
2022/05/15 11:02:47;;;;;;;6.82;5.00;;;18.40;99.90;;;;;;4972786;28;20409;-76
2022/05/15 11:05:35;;;;;;;6.72;4.80;;;18.30;99.90;;;;;;4970193;28;20359;-74
2022/05/15 11:08:37;;;;;;;5.05;4.25;;;18.30;99.90;;;;;;4969095;28;20075;-75
2022/05/15 11:11:12;;;;;;;7.63;5.50;;;18.10;99.90;;;;;;4969245;28;20117;-73
2022/05/15 11:14:06;;;;;;;6.90;4.88;;;18.00;99.90;;;;;;4968690;28;20524;-75
2022/05/15 11:16:49;;;;;;;7.22;5.75;;;18.00;99.90;;;;;;4962668;28;20074;-76
2022/05/15 11:19:38;;;;;;;6.75;5.32;;;17.90;99.90;;;;;;4984465;28;20038;-76
2022/05/15 11:22:38;;;;;;;6.03;4.82;;;17.90;99.90;;;;;;4979337;28;20394;-76
2022/05/15 11:25:05;;;;;;;7.03;5.88;;;17.90;99.90;;;;;;4968041;28;20075;-76
2022/05/15 11:27:43;;;;;;;8.90;5.45;;;18.00;99.90;;;;;;4971240;28;20034;-75
2022/05/15 11:30:51;;;;;;;7.90;5.90;;;18.00;99.90;;;;;;4969121;28;20038;-76
2022/05/15 11:33:31;;;;;;;10.18;6.97;;;18.00;99.90;;;;;;4913873;29;20406;-76
2022/05/15 11:36:14;;;;;;;8.68;7.20;;;18.00;99.90;;;;;;4910395;29;20566;-75
2022/05/15 11:39:03;;;;;;;8.65;6.10;;;18.00;99.90;;;;;;4954621;28;20046;-74
2022/05/15 11:42:09;;;;;;;10.27;6.40;;;17.90;99.90;;;;;;4971286;28;20034;-76
2022/05/15 11:44:40;;;;;;;7.95;5.60;;;17.90;99.90;;;;;;4953405;28;22953;-75
2022/05/15 11:47:23;;;;;;;7.25;5.60;;;17.90;99.90;;;;;;4967648;28;20042;-75
2022/05/15 11:50:15;;;;;;;7.40;5.15;;;17.80;99.90;;;;;;4970371;28;20034;-75
2022/05/15 11:52:54;;;;;;;6.80;5.07;;;17.80;99.90;;;;;;4950391;28;20167;-75
2022/05/15 11:55:42;;;;;;;6.88;5.13;;;17.70;99.90;;;;;;4967949;28;20034;-77
2022/05/15 11:58:17;;;;;;;6.97;5.50;;;17.60;99.90;;;;;;4970553;28;20027;-77
2022/05/15 12:01:00;;;;;;;7.40;5.90;;;17.50;99.90;;;;;;4971429;28;20037;-75
2022/05/15 12:03:48;;;;;;;7.65;5.93;;;17.50;99.90;;;;;;4988861;28;20118;-77
2022/05/15 12:06:41;;;;;;;11.27;7.63;;;17.50;99.90;;;;;;4983743;28;20500;-77
2022/05/15 12:09:17;;;;;;;8.35;5.78;;;17.60;99.90;;;;;;4985566;28;20112;-76
2022/05/15 12:11:47;;;;;;;6.68;4.88;;;17.50;99.90;;;;;;4985194;28;20030;-76
2022/05/15 12:15:02;;;;;;;7.65;5.47;;;17.40;99.90;;;;;;4990406;28;20512;-76
2022/05/15 12:17:34;;;;;;;6.45;5.22;;;17.30;99.90;;;;;;4984447;28;20032;-78
2022/05/15 12:20:28;;;;;;;5.82;4.68;;;17.20;99.90;;;;;;4990259;28;20527;-77
2022/05/15 12:22:59;;;;;;;7.30;5.22;;;17.10;99.90;;;;;;4990113;28;20032;-78
2022/05/15 12:26:16;;;;;;;8.15;4.78;;;17.00;99.90;;;;;;4985295;28;20106;-76
2022/05/15 12:28:58;;;;;;;6.15;3.95;;;17.00;99.90;;;;;;4988996;28;20077;-76
2022/05/15 12:31:51;;;;;;;4.97;3.92;;;16.90;99.90;;;;;;4980659;28;20026;-75
2022/05/15 12:34:35;;;;;;;5.32;3.70;;;16.90;99.90;;;;;;4978898;28;20057;-76
2022/05/15 12:37:05;;;;;;;5.10;3.17;;;16.90;99.90;;;;;;4985676;28;20046;-74
2022/05/15 12:39:42;;;;;;;4.68;3.70;;;16.90;99.90;;;;;;4988003;28;20077;-76
2022/05/15 12:42:20;;;;;;;4.82;3.95;;;16.80;99.90;;;;;;4988848;28;20049;-77
2022/05/15 12:45:06;;;;;;;4.30;3.03;;;16.80;99.90;;;;;;4989674;28;20022;-77
2022/05/15 12:47:33;;;;;;;5.17;4.10;;;16.80;99.90;;;;;;4989480;28;20125;-74
2022/05/15 12:50:10;;;;;;;5.55;4.65;;;16.70;99.90;;;;;;4984944;28;20081;-73
2022/05/15 12:52:39;;;;;;;4.47;3.65;;;16.70;99.90;;;;;;4985115;28;20050;-75
2022/05/15 12:55:20;;;;;;;6.70;4.90;;;16.60;99.90;;;;;;4988302;28;20026;-75
2022/05/15 12:57:51;;;;;;;4.15;3.65;;;16.50;99.90;;;;;;4982921;28;20491;-75
2022/05/15 13:00:30;;;;;;;4.43;3.75;;;16.50;99.90;;;;;;4985881;28;20031;-74
2022/05/15 13:03:03;;;;;;;4.50;3.85;;;16.50;99.90;;;;;;4985443;28;20547;-75
2022/05/15 13:05:38;;;;;;;4.80;3.75;;;16.40;99.90;;;;;;4987208;28;20027;-75
2022/05/15 13:08:08;;;;;;;5.18;4.53;;;16.30;99.90;;;;;;4984963;28;20034;-76
2022/05/15 13:10:41;;;;;;;5.38;4.13;;;16.30;99.90;;;;;;4985808;28;20038;-75
2022/05/15 13:13:35;;;;;;;5.30;4.35;;;16.20;99.90;;;;;;4983431;28;20037;-76
2022/05/15 13:16:05;;;;;;;5.95;4.45;;;16.10;99.90;;;;;;4979626;28;21002;-74
2022/05/15 13:18:35;;;;;;;5.85;4.57;;;16.00;99.90;;;;;;4987364;28;20109;-75
2022/05/15 13:21:10;;;;;;;6.53;3.90;;;16.00;99.90;;;;;;4985620;28;20121;-74
2022/05/15 13:23:46;;;;;;;6.20;4.63;;;15.90;99.90;;;;;;4987954;28;20481;-74
2022/05/15 13:26:27;;;;;;;6.72;4.82;;;15.90;99.90;;;;;;4988073;28;20023;-75
2022/05/15 13:28:59;;;;;;;7.75;4.20;;;15.90;99.90;;;;;;4986868;28;20516;-75
2022/05/15 13:31:28;;;;;;;4.75;3.67;;;15.90;99.90;;;;;;4987639;28;20054;-75
2022/05/15 13:33:56;;;;;;;4.15;3.70;;;16.00;99.90;;;;;;4984223;28;20994;-76
2022/05/15 13:36:24;;;;;;;5.00;4.07;;;16.10;99.90;;;;;;4982772;28;20035;-74
2022/05/15 13:44:35;;;;;;;2.78;2.17;;;16.30;99.90;;;;;;4986889;28;20072;-76
2022/05/15 13:47:14;;;;;;;4.63;3.83;;;16.20;99.90;;;;;;4987597;28;20078;-78